createdAt,value
2019-02-16T00:00:28.253Z,3.07
2019-02-16T00:02:56.841Z,2.99
2019-02-16T00:05:25.390Z,3.03
2019-02-16T00:07:53.933Z,3.07
2019-02-16T00:10:22.542Z,3.18
2019-02-16T00:12:51.110Z,3.26
2019-02-16T00:15:19.663Z,3.36
2019-02-16T00:17:48.245Z,3.38
2019-02-16T00:20:16.794Z,3.10
2019-02-16T00:22:45.341Z,2.98
2019-02-16T00:25:13.920Z,2.82
2019-02-16T00:27:42.499Z,2.84
2019-02-16T00:30:11.094Z,2.78
2019-02-16T00:32:39.645Z,2.68
2019-02-16T00:35:08.219Z,2.45
2019-02-16T00:37:36.835Z,2.34
2019-02-16T00:40:05.629Z,2.56
2019-02-16T00:42:34.181Z,2.52
2019-02-16T00:45:02.758Z,2.46
2019-02-16T00:47:31.342Z,2.63
2019-02-16T00:49:59.899Z,2.75
2019-02-16T00:52:28.455Z,2.62
2019-02-16T00:54:57.022Z,2.90
2019-02-16T00:57:25.610Z,2.68
2019-02-16T00:59:54.158Z,2.78
2019-02-16T01:02:22.714Z,3.19
2019-02-16T01:04:51.284Z,2.82
2019-02-16T01:07:19.842Z,2.79
2019-02-16T01:09:48.414Z,2.71
2019-02-16T01:12:16.965Z,2.65
2019-02-16T01:14:45.538Z,2.70
2019-02-16T01:17:14.118Z,2.64
2019-02-16T01:19:42.663Z,2.64
2019-02-16T01:22:11.241Z,2.84
2019-02-16T01:24:39.786Z,2.53
2019-02-16T01:27:08.332Z,2.49
2019-02-16T01:29:36.919Z,2.58
2019-02-16T01:32:05.461Z,2.62
2019-02-16T01:34:34.014Z,2.68
2019-02-16T01:37:02.583Z,2.64
2019-02-16T01:39:31.186Z,2.42
2019-02-16T01:41:59.745Z,2.30
2019-02-16T01:44:28.303Z,2.33
2019-02-16T01:46:56.883Z,2.36
2019-02-16T01:49:25.456Z,2.31
2019-02-16T01:51:53.984Z,2.41
2019-02-16T01:54:22.568Z,2.65
2019-02-16T01:56:51.920Z,2.81
2019-02-16T01:59:20.953Z,2.79
2019-02-16T02:01:50.461Z,2.63
2019-02-16T02:04:20.195Z,2.28
2019-02-16T02:06:49.508Z,2.01
2019-02-16T02:09:19.235Z,2.05
2019-02-16T02:11:48.515Z,1.93
2019-02-16T02:14:17.150Z,1.91
2019-02-16T02:16:45.730Z,1.80
2019-02-16T02:19:14.398Z,1.47
2019-02-16T02:21:42.886Z,1.15
2019-02-16T02:24:11.426Z,1.45
2019-02-16T02:26:40.320Z,1.53
2019-02-16T02:29:08.868Z,1.47
2019-02-16T02:31:37.709Z,1.48
2019-02-16T02:34:06.383Z,1.64
2019-02-16T02:36:35.008Z,1.67
2019-02-16T02:39:04.421Z,1.50
2019-02-16T02:41:33.030Z,1.53
2019-02-16T02:44:01.580Z,1.65
2019-02-16T02:46:30.127Z,1.68
2019-02-16T02:48:58.715Z,1.76
2019-02-16T02:51:27.346Z,1.32
2019-02-16T02:53:55.892Z,1.20
2019-02-16T02:56:24.473Z,1.03
2019-02-16T02:58:53.334Z,0.95
2019-02-16T03:01:21.904Z,1.01
2019-02-16T03:03:50.532Z,1.03
2019-02-16T03:06:19.503Z,1.01
2019-02-16T03:08:48.057Z,0.96
2019-02-16T03:11:16.948Z,1.33
2019-02-16T03:13:45.539Z,1.69
2019-02-16T03:16:14.419Z,1.67
2019-02-16T03:18:43.313Z,1.76
2019-02-16T03:21:11.900Z,1.65
2019-02-16T03:23:40.471Z,1.58
2019-02-16T03:26:16.270Z,1.46
2019-02-16T03:29:04.938Z,1.40
2019-02-16T03:31:56.135Z,1.39
2019-02-16T03:34:31.735Z,1.49
2019-02-16T03:37:21.052Z,1.49
2019-02-16T03:39:49.598Z,1.55
2019-02-16T03:42:18.152Z,1.22
2019-02-16T03:44:46.726Z,1.10
2019-02-16T03:47:15.275Z,1.09
2019-02-16T03:49:43.895Z,1.06
2019-02-16T03:52:14.124Z,0.87
2019-02-16T03:54:42.721Z,0.92
2019-02-16T03:57:11.357Z,0.89
2019-02-16T03:59:39.904Z,1.00
2019-02-16T04:02:08.454Z,1.20
2019-02-16T04:04:37.040Z,0.98
2019-02-16T04:07:05.589Z,0.85
2019-02-16T04:09:34.145Z,0.71
2019-02-16T04:12:02.723Z,0.85
2019-02-16T04:14:31.536Z,0.94
2019-02-16T04:17:00.128Z,1.05
2019-02-16T04:19:28.744Z,1.18
2019-02-16T04:21:57.292Z,1.19
2019-02-16T04:24:25.841Z,1.20
2019-02-16T04:26:54.416Z,1.00
2019-02-16T04:29:22.964Z,0.93
2019-02-16T04:31:51.561Z,0.94
2019-02-16T04:34:20.114Z,0.96
2019-02-16T04:36:48.672Z,0.96
2019-02-16T04:39:17.255Z,1.00
2019-02-16T04:41:45.808Z,0.86
2019-02-16T04:44:14.357Z,0.78
2019-02-16T04:46:42.970Z,0.90
2019-02-16T04:49:11.521Z,0.93
2019-02-16T04:51:40.103Z,1.02
2019-02-16T04:54:08.661Z,1.14
2019-02-16T04:56:37.244Z,1.09
2019-02-16T04:59:05.805Z,1.35
2019-02-16T05:01:34.378Z,1.48
2019-02-16T05:04:02.924Z,1.18
2019-02-16T05:06:31.470Z,1.02
2019-02-16T05:09:00.062Z,0.91
2019-02-16T05:11:28.968Z,1.02
2019-02-16T05:13:57.519Z,1.01
2019-02-16T05:16:26.101Z,1.37
2019-02-16T05:18:54.720Z,1.40
2019-02-16T05:21:23.262Z,1.33
2019-02-16T05:23:51.845Z,1.71
2019-02-16T05:26:20.392Z,1.78
2019-02-16T05:28:48.935Z,1.54
2019-02-16T05:31:17.520Z,1.50
2019-02-16T05:33:46.085Z,1.32
2019-02-16T05:36:14.642Z,1.31
2019-02-16T05:38:43.230Z,1.25
2019-02-16T05:41:11.784Z,1.27
2019-02-16T05:43:40.346Z,1.05
2019-02-16T05:46:08.921Z,1.05
2019-02-16T05:48:37.464Z,1.00
2019-02-16T05:51:06.052Z,0.99
2019-02-16T05:53:34.601Z,0.96
2019-02-16T05:56:03.180Z,0.97
2019-02-16T05:58:31.722Z,0.91
2019-02-16T06:01:00.274Z,0.88
2019-02-16T06:03:28.873Z,0.71
2019-02-16T06:05:57.432Z,0.75
2019-02-16T06:08:25.980Z,0.64
2019-02-16T06:10:54.648Z,0.87
2019-02-16T06:13:23.209Z,0.72
2019-02-16T06:15:51.757Z,1.03
2019-02-16T06:18:20.336Z,1.25
2019-02-16T06:20:48.917Z,1.74
2019-02-16T06:23:17.538Z,1.79
2019-02-16T06:25:46.115Z,1.51
2019-02-16T06:28:14.674Z,1.24
2019-02-16T06:30:43.241Z,1.73
2019-02-16T06:33:11.794Z,1.99
2019-02-16T06:36:05.267Z,1.77
2019-02-16T06:38:33.820Z,1.62
2019-02-16T06:41:02.363Z,1.50
2019-02-16T06:43:31.139Z,1.66
2019-02-16T06:46:00.897Z,1.35
2019-02-16T06:48:29.671Z,1.28
2019-02-16T06:50:58.217Z,1.14
2019-02-16T06:53:26.782Z,1.06
2019-02-16T06:56:05.183Z,1.36
2019-02-16T06:58:33.764Z,1.79
2019-02-16T07:01:02.319Z,1.56
2019-02-16T07:03:30.902Z,1.84
2019-02-16T07:05:59.444Z,1.70
2019-02-16T07:08:27.991Z,1.77
2019-02-16T07:10:56.605Z,1.68
2019-02-16T07:13:35.177Z,1.68
2019-02-16T07:16:36.794Z,1.88
2019-02-16T07:19:18.601Z,1.95
2019-02-16T07:21:47.186Z,2.00
2019-02-16T07:24:15.726Z,2.45
2019-02-16T07:26:44.329Z,2.47
2019-02-16T07:29:12.872Z,2.46
2019-02-16T07:31:41.444Z,2.70
2019-02-16T07:34:10.026Z,2.83
2019-02-16T07:36:38.569Z,2.87
2019-02-16T07:39:08.118Z,2.92
2019-02-16T07:41:36.729Z,2.96
2019-02-16T07:44:30.500Z,3.31
2019-02-16T07:47:07.497Z,3.65
2019-02-16T07:50:10.357Z,3.91
2019-02-16T07:53:09.915Z,3.96
2019-02-16T07:55:59.406Z,4.28
2019-02-16T07:58:32.639Z,4.63
2019-02-16T08:01:14.589Z,4.83
2019-02-16T08:03:50.904Z,5.03
2019-02-16T08:06:53.933Z,5.25
2019-02-16T08:09:44.393Z,5.52
2019-02-16T08:12:26.144Z,5.96
2019-02-16T08:15:14.297Z,6.40
2019-02-16T08:17:59.568Z,6.65
2019-02-16T08:20:35.779Z,6.83
2019-02-16T08:23:23.375Z,6.92
2019-02-16T08:26:04.883Z,7.11
2019-02-16T08:28:39.681Z,7.24
2019-02-16T08:31:14.036Z,7.60
2019-02-16T08:33:48.116Z,7.82
2019-02-16T08:36:34.335Z,7.98
2019-02-16T08:39:09.958Z,7.95
2019-02-16T08:41:49.550Z,8.17
2019-02-16T08:44:46.094Z,8.38
2019-02-16T08:47:36.487Z,8.64
2019-02-16T08:50:23.242Z,8.97
2019-02-16T08:53:29.293Z,9.17
2019-02-16T08:56:15.303Z,9.33
2019-02-16T08:58:53.856Z,9.53
2019-02-16T09:01:40.519Z,9.69
2019-02-16T09:04:19.500Z,9.69
2019-02-16T09:06:53.882Z,9.88
2019-02-16T09:09:40.471Z,10.11
2019-02-16T09:12:21.876Z,10.36
2019-02-16T09:15:08.164Z,10.52
2019-02-16T09:18:11.096Z,10.62
2019-02-16T09:20:58.682Z,10.92
2019-02-16T09:23:42.899Z,11.05
2019-02-16T09:26:18.902Z,11.16
2019-02-16T09:28:57.873Z,11.48
2019-02-16T09:31:45.938Z,11.40
2019-02-16T09:34:26.779Z,11.41
2019-02-16T09:37:29.238Z,11.34
2019-02-16T09:40:31.997Z,11.55
2019-02-16T09:43:10.941Z,11.84
2019-02-16T09:45:55.016Z,12.14
2019-02-16T09:48:28.722Z,12.24
2019-02-16T09:51:15.204Z,12.26
2019-02-16T09:53:53.143Z,12.41
2019-02-16T09:56:41.146Z,12.59
2019-02-16T09:59:28.781Z,12.82
2019-02-16T10:02:15.381Z,13.23
2019-02-16T10:05:05.493Z,13.46
2019-02-16T10:07:53.053Z,13.82
2019-02-16T10:10:43.942Z,14.01
2019-02-16T10:13:22.854Z,14.50
2019-02-16T10:16:08.770Z,14.76
2019-02-16T10:18:54.984Z,14.79
2019-02-16T10:21:43.402Z,15.00
2019-02-16T10:24:30.014Z,15.56
2019-02-16T10:27:16.584Z,15.76
2019-02-16T10:30:16.410Z,16.01
2019-02-16T10:33:07.656Z,16.00
2019-02-16T10:35:48.796Z,16.80
2019-02-16T10:38:25.113Z,17.56
2019-02-16T10:41:09.726Z,17.80
2019-02-16T10:44:15.767Z,17.79
2019-02-16T10:46:53.485Z,18.11
2019-02-16T10:49:31.014Z,18.57
2019-02-16T10:52:21.761Z,19.72
2019-02-16T10:55:10.364Z,19.50
2019-02-16T10:57:56.611Z,19.97
2019-02-16T11:00:43.385Z,19.80
2019-02-16T11:03:25.582Z,19.60
2019-02-16T11:06:03.691Z,20.26
2019-02-16T11:08:42.816Z,20.71
2019-02-16T11:11:21.551Z,21.58
2019-02-16T11:14:02.697Z,19.98
2019-02-16T11:16:48.516Z,18.90
2019-02-16T11:19:34.792Z,19.35
2019-02-16T11:22:09.640Z,19.67
2019-02-16T11:24:55.643Z,20.06
2019-02-16T11:27:46.109Z,19.39
2019-02-16T11:30:24.548Z,19.53
2019-02-16T11:33:04.370Z,19.74
2019-02-16T11:35:45.275Z,19.75
2019-02-16T11:38:23.449Z,19.83
2019-02-16T11:41:08.857Z,20.28
2019-02-16T11:43:52.598Z,21.22
2019-02-16T11:46:58.688Z,21.53
2019-02-16T11:49:46.984Z,21.98
2019-02-16T11:52:35.169Z,22.23
2019-02-16T11:55:36.014Z,22.35
2019-02-16T11:58:29.513Z,22.85
2019-02-16T12:01:25.717Z,22.28
2019-02-16T12:04:02.581Z,22.48
2019-02-16T12:06:35.785Z,24.47
2019-02-16T12:09:30.428Z,25.57
2019-02-16T12:12:18.030Z,25.73
2019-02-16T12:14:56.992Z,26.06
2019-02-16T12:17:47.008Z,25.98
2019-02-16T12:20:33.421Z,25.53
2019-02-16T12:23:06.299Z,22.10
2019-02-16T12:26:09.058Z,22.35
2019-02-16T12:28:55.804Z,22.96
2019-02-16T12:31:34.598Z,24.03
2019-02-16T12:34:16.127Z,23.06
2019-02-16T12:37:12.688Z,22.24
2019-02-16T12:39:46.865Z,21.34
2019-02-16T12:42:33.035Z,21.34
2019-02-16T12:45:14.872Z,21.83
2019-02-16T12:47:50.481Z,21.96
2019-02-16T12:50:34.034Z,22.06
2019-02-16T12:53:37.037Z,22.15
2019-02-16T12:56:24.067Z,23.31
2019-02-16T12:59:00.180Z,22.32
2019-02-16T13:02:06.192Z,21.53
2019-02-16T13:04:53.763Z,22.73
2019-02-16T13:07:30.794Z,22.52
2019-02-16T13:10:18.752Z,22.68
2019-02-16T13:13:09.191Z,22.81
2019-02-16T13:16:05.965Z,22.80
2019-02-16T13:18:42.282Z,23.83
2019-02-16T13:21:21.542Z,23.94
2019-02-16T13:24:04.120Z,24.15
2019-02-16T13:26:50.477Z,24.46
2019-02-16T13:29:37.177Z,24.35
2019-02-16T13:32:16.508Z,23.05
2019-02-16T13:34:57.404Z,24.04
2019-02-16T13:37:50.960Z,23.40
2019-02-16T13:40:25.872Z,22.10
2019-02-16T13:43:16.206Z,21.71
2019-02-16T13:45:52.473Z,21.09
2019-02-16T13:48:55.226Z,21.61
2019-02-16T13:51:58.201Z,22.34
2019-02-16T13:54:48.378Z,21.70
2019-02-16T13:57:31.255Z,22.21
2019-02-16T14:00:08.214Z,21.71
2019-02-16T14:02:53.214Z,21.08
2019-02-16T14:05:30.255Z,22.46
2019-02-16T14:08:20.947Z,23.25
2019-02-16T14:11:14.076Z,23.47
2019-02-16T14:13:51.924Z,23.64
2019-02-16T14:16:38.399Z,24.28
2019-02-16T14:19:06.957Z,25.92
2019-02-16T14:21:35.536Z,25.00
2019-02-16T14:24:04.157Z,24.76
2019-02-16T14:26:32.730Z,25.25
2019-02-16T14:29:01.290Z,24.15
2019-02-16T14:31:29.894Z,24.11
2019-02-16T14:33:58.445Z,24.69
2019-02-16T14:36:27.015Z,25.54
2019-02-16T14:39:13.270Z,26.77
2019-02-16T14:41:41.817Z,27.07
2019-02-16T14:44:10.375Z,26.31
2019-02-16T14:46:38.978Z,25.96
2019-02-16T14:49:07.595Z,25.48
2019-02-16T14:51:36.150Z,25.85
2019-02-16T14:54:04.736Z,26.99
2019-02-16T14:56:33.287Z,27.70
2019-02-16T14:59:01.919Z,27.68
2019-02-16T15:01:30.464Z,27.72
2019-02-16T15:03:59.021Z,27.20
2019-02-16T15:06:27.611Z,27.74
2019-02-16T15:08:56.199Z,27.50
2019-02-16T15:11:24.754Z,26.56
2019-02-16T15:13:53.309Z,25.97
2019-02-16T15:16:21.890Z,24.58
2019-02-16T15:18:50.439Z,23.20
2019-02-16T15:21:19.043Z,21.87
2019-02-16T15:23:47.631Z,21.34
2019-02-16T15:26:16.186Z,21.74
2019-02-16T15:28:44.793Z,20.62
2019-02-16T15:31:13.380Z,20.62
2019-02-16T15:33:41.950Z,20.21
2019-02-16T15:36:10.549Z,20.24
2019-02-16T15:38:39.109Z,19.74
2019-02-16T15:41:07.667Z,18.34
2019-02-16T15:43:36.266Z,16.85
2019-02-16T15:46:04.855Z,16.12
2019-02-16T15:48:33.429Z,15.65
2019-02-16T15:51:02.023Z,15.28
2019-02-16T15:53:30.916Z,14.75
2019-02-16T15:55:59.469Z,14.06
2019-02-16T15:58:28.077Z,13.38
2019-02-16T16:00:56.657Z,12.73
2019-02-16T16:03:25.629Z,12.06
2019-02-16T16:05:54.606Z,11.51
2019-02-16T16:08:48.298Z,11.09
2019-02-16T16:11:48.212Z,10.72
2019-02-16T16:14:27.446Z,10.46
2019-02-16T16:17:18.161Z,10.11
2019-02-16T16:20:08.535Z,9.68
2019-02-16T16:22:56.127Z,9.42
2019-02-16T16:25:46.268Z,9.30
2019-02-16T16:28:32.844Z,8.94
2019-02-16T16:31:21.414Z,8.69
2019-02-16T16:34:11.856Z,8.61
2019-02-16T16:37:11.965Z,8.97
2019-02-16T16:39:58.310Z,9.03
2019-02-16T16:42:46.392Z,8.47
2019-02-16T16:45:33.907Z,8.37
2019-02-16T16:48:20.340Z,8.18
2019-02-16T16:51:07.948Z,7.83
2019-02-16T16:54:07.932Z,7.57
2019-02-16T16:56:58.345Z,7.56
2019-02-16T16:59:45.933Z,7.07
2019-02-16T17:02:45.819Z,6.92
2019-02-16T17:05:39.494Z,6.75
2019-02-16T17:08:26.294Z,6.93
2019-02-16T17:11:17.070Z,6.65
2019-02-16T17:14:16.802Z,6.40
2019-02-16T17:16:59.331Z,6.15
2019-02-16T17:19:37.237Z,5.99
2019-02-16T17:22:14.595Z,5.83
2019-02-16T17:25:05.363Z,5.89
2019-02-16T17:27:47.809Z,5.80
2019-02-16T17:30:29.940Z,6.13
2019-02-16T17:33:23.082Z,5.93
2019-02-16T17:35:57.435Z,5.64
2019-02-16T17:38:41.852Z,5.34
2019-02-16T17:41:22.242Z,5.12
2019-02-16T17:43:56.738Z,5.00
2019-02-16T17:46:41.219Z,5.04
2019-02-16T17:49:33.362Z,5.06
2019-02-16T17:52:20.042Z,5.17
2019-02-16T17:55:06.496Z,5.31
2019-02-16T17:57:43.229Z,5.28
2019-02-16T18:00:40.270Z,5.08
2019-02-16T18:03:26.520Z,4.96
2019-02-16T18:06:06.014Z,4.66
2019-02-16T18:09:02.493Z,4.76
2019-02-16T18:11:41.406Z,4.89
2019-02-16T18:14:29.012Z,4.74
2019-02-16T18:17:17.570Z,4.86
2019-02-16T18:20:05.162Z,4.54
2019-02-16T18:22:48.443Z,4.59
2019-02-16T18:25:36.070Z,4.47
2019-02-16T18:28:28.012Z,4.32
2019-02-16T18:31:19.413Z,4.30
2019-02-16T18:34:07.001Z,4.08
2019-02-16T18:36:54.572Z,3.79
2019-02-16T18:39:42.236Z,3.61
2019-02-16T18:42:28.310Z,3.70
2019-02-16T18:45:14.686Z,3.94
2019-02-16T18:48:06.008Z,3.83
2019-02-16T18:51:05.840Z,3.78
2019-02-16T18:53:56.213Z,3.93
2019-02-16T18:56:42.783Z,3.80
2019-02-16T18:59:28.285Z,3.67
2019-02-16T19:02:05.132Z,3.56
2019-02-16T19:04:58.819Z,3.38
2019-02-16T19:07:41.607Z,3.26
2019-02-16T19:10:44.622Z,3.35
2019-02-16T19:13:32.247Z,3.52
2019-02-16T19:16:32.210Z,3.61
2019-02-16T19:19:18.664Z,4.00
2019-02-16T19:22:03.872Z,3.89
2019-02-16T19:24:39.585Z,3.55
2019-02-16T19:27:16.894Z,3.30
2019-02-16T19:29:56.693Z,3.36
2019-02-16T19:32:41.182Z,3.33
2019-02-16T19:35:38.253Z,3.17
2019-02-16T19:38:16.922Z,3.17
2019-02-16T19:41:07.314Z,3.16
2019-02-16T19:43:54.897Z,3.26
2019-02-16T19:46:45.688Z,3.08
2019-02-16T19:49:36.438Z,2.94
2019-02-16T19:52:27.416Z,2.99
2019-02-16T19:55:14.143Z,3.21
2019-02-16T19:57:53.954Z,3.37
2019-02-16T20:00:34.826Z,3.26
2019-02-16T20:03:17.714Z,2.77
2019-02-16T20:06:08.209Z,2.12
2019-02-16T20:08:45.710Z,2.12
2019-02-16T20:11:32.857Z,2.17
2019-02-16T20:14:26.477Z,2.15
2019-02-16T20:17:16.513Z,2.30
2019-02-16T20:19:52.587Z,2.46
2019-02-16T20:22:45.990Z,2.58
2019-02-16T20:25:49.021Z,2.59
2019-02-16T20:28:37.972Z,2.50
2019-02-16T20:31:28.914Z,2.26
2019-02-16T20:34:09.441Z,2.52
2019-02-16T20:37:03.215Z,2.46
2019-02-16T20:39:43.876Z,2.11
2019-02-16T20:42:31.424Z,2.02
2019-02-16T20:45:12.703Z,2.07
2019-02-16T20:48:06.393Z,2.02
2019-02-16T20:51:00.557Z,1.86
2019-02-16T20:53:48.402Z,1.48
2019-02-16T20:56:21.812Z,1.54
2019-02-16T20:59:08.318Z,1.52
2019-02-16T21:01:44.589Z,1.51
2019-02-16T21:04:41.277Z,1.50
2019-02-16T21:07:27.792Z,1.26
2019-02-16T21:10:10.441Z,1.33
2019-02-16T21:12:58.004Z,1.34
2019-02-16T21:15:40.494Z,1.52
2019-02-16T21:18:28.089Z,1.34
2019-02-16T21:21:06.437Z,1.33
2019-02-16T21:24:00.205Z,1.45
2019-02-16T21:26:39.827Z,1.34
2019-02-16T21:29:20.626Z,1.33
2019-02-16T21:32:01.568Z,1.36
2019-02-16T21:34:38.379Z,1.39
2019-02-16T21:37:34.807Z,1.39
2019-02-16T21:40:13.249Z,1.40
2019-02-16T21:42:50.589Z,1.32
2019-02-16T21:45:27.405Z,1.32
2019-02-16T21:48:08.650Z,1.14
2019-02-16T21:50:50.784Z,1.00
2019-02-16T21:53:38.730Z,0.98
2019-02-16T21:56:20.414Z,0.93
2019-02-16T21:59:07.711Z,1.18
2019-02-16T22:01:56.670Z,1.05
2019-02-16T22:04:30.909Z,0.96
2019-02-16T22:07:18.481Z,1.13
2019-02-16T22:10:02.706Z,0.90
2019-02-16T22:12:50.272Z,0.97
2019-02-16T22:15:18.869Z,1.03
2019-02-16T22:17:47.433Z,1.24
2019-02-16T22:20:15.990Z,1.15
2019-02-16T22:22:44.599Z,0.99
2019-02-16T22:25:13.165Z,0.91
2019-02-16T22:27:41.729Z,0.85
2019-02-16T22:30:10.669Z,0.80
2019-02-16T22:32:39.214Z,0.59
2019-02-16T22:35:08.170Z,0.63
2019-02-16T22:37:36.721Z,0.56
2019-02-16T22:40:05.497Z,0.52
2019-02-16T22:42:34.086Z,0.62
2019-02-16T22:45:02.709Z,0.95
2019-02-16T22:47:31.265Z,0.64
2019-02-16T22:49:59.839Z,0.56
2019-02-16T22:52:28.421Z,0.34
2019-02-16T22:54:57.011Z,0.34
2019-02-16T22:57:26.220Z,0.36
2019-02-16T22:59:54.776Z,0.45
2019-02-16T23:02:23.350Z,0.47
2019-02-16T23:04:51.899Z,0.50
2019-02-16T23:07:20.478Z,0.64
2019-02-16T23:09:49.026Z,0.68
2019-02-16T23:12:17.618Z,0.77
2019-02-16T23:14:46.507Z,0.64
2019-02-16T23:17:15.063Z,0.32
2019-02-16T23:19:43.641Z,0.18
2019-02-16T23:22:12.216Z,0.11
2019-02-16T23:24:40.809Z,0.06
2019-02-16T23:27:09.381Z,0.20
2019-02-16T23:29:37.955Z,0.19
2019-02-16T23:32:06.556Z,0.37
2019-02-16T23:34:35.103Z,0.22
2019-02-16T23:37:03.657Z,0.45
2019-02-16T23:39:32.245Z,0.43
2019-02-16T23:42:00.801Z,0.54
2019-02-16T23:44:29.354Z,0.64
2019-02-16T23:46:57.963Z,0.65
2019-02-16T23:49:26.524Z,0.57
2019-02-16T23:51:55.120Z,0.40
2019-02-16T23:54:23.672Z,0.20
2019-02-16T23:56:52.229Z,-0.02
2019-02-16T23:59:20.818Z,0.03
